sensor_id;sensor_type;location;lat;lon;timestamp;temperature;humidity
75705;DHT22;64323;44.788;37.692;2022-10-13T15:45:27;14.04;58.30
75705;DHT22;64323;44.788;37.692;2022-10-13T15:47:59;14.03;59.72
75705;DHT22;64323;44.788;37.692;2022-10-13T15:50:31;14.03;59.15
75705;DHT22;64323;44.788;37.692;2022-10-13T15:53:03;14.01;58.65
75705;DHT22;64323;44.788;37.692;2022-10-13T15:55:35;14.01;59.36
75705;DHT22;64323;44.788;37.692;2022-10-13T15:58:07;14.00;59.37
75705;DHT22;64323;44.788;37.692;2022-10-13T16:00:39;13.96;58.80
75705;DHT22;64323;44.788;37.692;2022-10-13T16:03:16;13.95;59.00
75705;DHT22;64323;44.788;37.692;2022-10-13T16:05:48;13.95;58.83
75705;DHT22;64323;44.788;37.692;2022-10-13T16:08:20;13.90;60.06
75705;DHT22;64323;44.788;37.692;2022-10-13T16:10:52;13.89;61.53
75705;DHT22;64323;44.788;37.692;2022-10-13T16:13:24;13.82;59.99
75705;DHT22;64323;44.788;37.692;2022-10-13T16:15:57;13.81;61.33
75705;DHT22;64323;44.788;37.692;2022-10-13T16:18:31;13.78;60.64
75705;DHT22;64323;44.788;37.692;2022-10-13T16:21:16;13.77;60.86
75705;DHT22;64323;44.788;37.692;2022-10-13T16:23:48;13.81;60.47
75705;DHT22;64323;44.788;37.692;2022-10-13T16:26:20;13.82;61.17
75705;DHT22;64323;44.788;37.692;2022-10-13T16:28:55;13.71;60.96
75705;DHT22;64323;44.788;37.692;2022-10-13T16:31:28;13.73;64.51
75705;DHT22;64323;44.788;37.692;2022-10-13T16:34:00;13.68;65.56
75705;DHT22;64323;44.788;37.692;2022-10-13T16:36:32;13.68;66.39
75705;DHT22;64323;44.788;37.692;2022-10-13T16:39:04;13.62;67.04
75705;DHT22;64323;44.788;37.692;2022-10-13T16:41:35;13.55;64.35
75705;DHT22;64323;44.788;37.692;2022-10-13T16:44:09;13.53;64.47
75705;DHT22;64323;44.788;37.692;2022-10-13T16:46:41;13.48;64.04
75705;DHT22;64323;44.788;37.692;2022-10-13T16:49:19;13.39;65.50
75705;DHT22;64323;44.788;37.692;2022-10-13T16:51:51;13.31;66.00
75705;DHT22;64323;44.788;37.692;2022-10-13T16:54:23;13.25;65.88
75705;DHT22;64323;44.788;37.692;2022-10-13T16:56:55;13.20;66.43
75705;DHT22;64323;44.788;37.692;2022-10-13T16:59:27;13.15;66.30
75705;DHT22;64323;44.788;37.692;2022-10-13T17:01:59;13.14;67.67
75705;DHT22;64323;44.788;37.692;2022-10-13T17:04:31;12.99;67.23
75705;DHT22;64323;44.788;37.692;2022-10-13T17:07:03;12.82;68.42
75705;DHT22;64323;44.788;37.692;2022-10-13T17:09:35;12.72;68.48
75705;DHT22;64323;44.788;37.692;2022-10-13T17:12:09;12.64;69.05
75705;DHT22;64323;44.788;37.692;2022-10-13T17:14:43;12.60;70.10
75705;DHT22;64323;44.788;37.692;2022-10-13T17:17:16;12.59;70.01
75705;DHT22;64323;44.788;37.692;2022-10-13T17:19:48;12.60;70.31
75705;DHT22;64323;44.788;37.692;2022-10-13T17:22:22;12.51;70.01
75705;DHT22;64323;44.788;37.692;2022-10-13T17:24:59;12.47;71.63
75705;DHT22;64323;44.788;37.692;2022-10-13T17:27:36;12.46;70.78
75705;DHT22;64323;44.788;37.692;2022-10-13T17:30:09;12.38;70.97
75705;DHT22;64323;44.788;37.692;2022-10-13T17:32:41;12.34;70.90
75705;DHT22;64323;44.788;37.692;2022-10-13T17:35:13;12.31;71.32
75705;DHT22;64323;44.788;37.692;2022-10-13T17:37:48;12.23;71.44
75705;DHT22;64323;44.788;37.692;2022-10-13T17:40:22;12.23;71.36
75705;DHT22;64323;44.788;37.692;2022-10-13T17:42:55;12.10;72.80
75705;DHT22;64323;44.788;37.692;2022-10-13T17:45:33;12.05;72.97
75705;DHT22;64323;44.788;37.692;2022-10-13T17:48:05;12.01;73.12
75705;DHT22;64323;44.788;37.692;2022-10-13T17:50:40;11.97;72.95
75705;DHT22;64323;44.788;37.692;2022-10-13T17:53:13;11.92;72.88
75705;DHT22;64323;44.788;37.692;2022-10-13T17:55:47;11.85;73.22
75705;DHT22;64323;44.788;37.692;2022-10-13T17:58:21;11.92;73.32
75705;DHT22;64323;44.788;37.692;2022-10-13T18:00:54;11.83;73.50
75705;DHT22;64323;44.788;37.692;2022-10-13T18:03:27;11.72;74.60
75705;DHT22;64323;44.788;37.692;2022-10-13T18:05:58;11.56;75.12
75705;DHT22;64323;44.788;37.692;2022-10-13T18:08:31;11.47;75.57
75705;DHT22;64323;44.788;37.692;2022-10-13T18:11:05;11.42;75.30
75705;DHT22;64323;44.788;37.692;2022-10-13T18:13:38;11.42;75.48
75705;DHT22;64323;44.788;37.692;2022-10-13T18:16:16;11.28;76.00
75705;DHT22;64323;44.788;37.692;2022-10-13T18:18:50;11.22;75.78
75705;DHT22;64323;44.788;37.692;2022-10-13T18:21:23;11.14;76.56
75705;DHT22;64323;44.788;37.692;2022-10-13T18:23:59;11.17;76.57
75705;DHT22;64323;44.788;37.692;2022-10-13T18:26:36;11.13;76.37
75705;DHT22;64323;44.788;37.692;2022-10-13T18:29:10;11.12;76.36
75705;DHT22;64323;44.788;37.692;2022-10-13T18:31:54;11.17;76.34
75705;DHT22;64323;44.788;37.692;2022-10-13T18:34:29;11.15;76.50
75705;DHT22;64323;44.788;37.692;2022-10-13T18:37:02;11.10;76.53
75705;DHT22;64323;44.788;37.692;2022-10-13T18:39:37;11.08;76.64
75705;DHT22;64323;44.788;37.692;2022-10-13T18:42:09;11.03;76.81
75705;DHT22;64323;44.788;37.692;2022-10-13T18:44:42;11.11;76.45
75705;DHT22;64323;44.788;37.692;2022-10-13T18:47:14;11.07;76.63
75705;DHT22;64323;44.788;37.692;2022-10-13T18:49:48;10.95;77.27
75705;DHT22;64323;44.788;37.692;2022-10-13T18:52:21;11.00;77.18
75705;DHT22;64323;44.788;37.692;2022-10-13T18:54:56;10.95;77.52
75705;DHT22;64323;44.788;37.692;2022-10-13T18:57:28;10.92;77.15
75705;DHT22;64323;44.788;37.692;2022-10-13T19:00:01;10.96;76.63
75705;DHT22;64323;44.788;37.692;2022-10-13T19:02:34;10.97;76.64
75705;DHT22;64323;44.788;37.692;2022-10-13T19:05:08;11.08;76.34
75705;DHT22;64323;44.788;37.692;2022-10-13T19:07:41;11.14;76.35
75705;DHT22;64323;44.788;37.692;2022-10-13T19:10:13;11.19;75.49
75705;DHT22;64323;44.788;37.692;2022-10-13T19:12:47;11.17;75.72
75705;DHT22;64323;44.788;37.692;2022-10-13T19:15:19;11.08;75.80
75705;DHT22;64323;44.788;37.692;2022-10-13T19:17:54;11.10;76.18
75705;DHT22;64323;44.788;37.692;2022-10-13T19:20:26;11.04;76.44
75705;DHT22;64323;44.788;37.692;2022-10-13T19:22:58;11.09;75.86
75705;DHT22;64323;44.788;37.692;2022-10-13T19:25:32;11.05;76.31
75705;DHT22;64323;44.788;37.692;2022-10-13T19:28:04;10.99;75.87
75705;DHT22;64323;44.788;37.692;2022-10-13T19:30:36;10.96;76.07
75705;DHT22;64323;44.788;37.692;2022-10-13T19:33:08;11.01;76.42
75705;DHT22;64323;44.788;37.692;2022-10-13T19:35:51;10.93;76.42
75705;DHT22;64323;44.788;37.692;2022-10-13T19:38:24;10.81;77.02
75705;DHT22;64323;44.788;37.692;2022-10-13T19:41:00;10.72;77.60
75705;DHT22;64323;44.788;37.692;2022-10-13T19:43:33;10.70;77.72
75705;DHT22;64323;44.788;37.692;2022-10-13T19:46:06;10.69;77.11
75705;DHT22;64323;44.788;37.692;2022-10-13T19:48:38;10.65;77.04
75705;DHT22;64323;44.788;37.692;2022-10-13T19:51:11;10.62;77.60
75705;DHT22;64323;44.788;37.692;2022-10-13T19:53:43;10.54;77.22
75705;DHT22;64323;44.788;37.692;2022-10-13T19:56:24;10.50;77.99
75705;DHT22;64323;44.788;37.692;2022-10-13T19:58:57;10.53;77.15
75705;DHT22;64323;44.788;37.692;2022-10-13T20:01:29;10.49;76.82
75705;DHT22;64323;44.788;37.692;2022-10-13T20:04:02;10.45;77.03
75705;DHT22;64323;44.788;37.692;2022-10-13T20:06:34;10.43;77.28
75705;DHT22;64323;44.788;37.692;2022-10-13T20:09:05;10.43;77.45
75705;DHT22;64323;44.788;37.692;2022-10-13T20:11:37;10.43;76.84
75705;DHT22;64323;44.788;37.692;2022-10-13T20:14:09;10.46;76.80
75705;DHT22;64323;44.788;37.692;2022-10-13T20:16:41;10.51;76.82
75705;DHT22;64323;44.788;37.692;2022-10-13T20:19:14;10.60;76.63
75705;DHT22;64323;44.788;37.692;2022-10-13T20:25:12;10.68;75.99
75705;DHT22;64323;44.788;37.692;2022-10-13T20:27:45;10.66;76.12
75705;DHT22;64323;44.788;37.692;2022-10-13T20:30:17;10.55;76.63
75705;DHT22;64323;44.788;37.692;2022-10-13T20:32:50;10.51;76.35
75705;DHT22;64323;44.788;37.692;2022-10-13T20:35:21;10.42;77.12
75705;DHT22;64323;44.788;37.692;2022-10-13T20:37:53;10.41;77.08
75705;DHT22;64323;44.788;37.692;2022-10-13T20:40:25;10.44;76.97
75705;DHT22;64323;44.788;37.692;2022-10-13T20:42:57;10.43;76.96
75705;DHT22;64323;44.788;37.692;2022-10-13T20:45:29;10.46;76.95
75705;DHT22;64323;44.788;37.692;2022-10-13T20:48:01;10.44;76.81
75705;DHT22;64323;44.788;37.692;2022-10-13T20:50:33;10.43;77.08
75705;DHT22;64323;44.788;37.692;2022-10-13T20:53:05;10.43;76.81
75705;DHT22;64323;44.788;37.692;2022-10-13T20:55:37;10.41;76.84
75705;DHT22;64323;44.788;37.692;2022-10-13T20:58:09;10.38;77.41
75705;DHT22;64323;44.788;37.692;2022-10-13T21:00:44;10.37;77.42
75705;DHT22;64323;44.788;37.692;2022-10-13T21:03:15;10.35;77.26
75705;DHT22;64323;44.788;37.692;2022-10-13T21:05:52;10.36;77.27
75705;DHT22;64323;44.788;37.692;2022-10-13T21:08:23;10.37;77.31
75705;DHT22;64323;44.788;37.692;2022-10-13T21:10:56;10.36;77.08
75705;DHT22;64323;44.788;37.692;2022-10-13T21:13:28;10.39;77.38
75705;DHT22;64323;44.788;37.692;2022-10-13T21:16:08;10.38;76.92
75705;DHT22;64323;44.788;37.692;2022-10-13T21:18:43;10.41;76.85
75705;DHT22;64323;44.788;37.692;2022-10-13T21:21:20;10.39;76.31
75705;DHT22;64323;44.788;37.692;2022-10-13T21:23:57;10.36;76.59
75705;DHT22;64323;44.788;37.692;2022-10-13T21:26:30;10.36;76.32
75705;DHT22;64323;44.788;37.692;2022-10-13T21:29:02;10.37;76.27
75705;DHT22;64323;44.788;37.692;2022-10-13T21:31:34;10.38;76.43
75705;DHT22;64323;44.788;37.692;2022-10-13T21:34:06;10.41;75.92
75705;DHT22;64323;44.788;37.692;2022-10-13T21:36:38;10.38;76.39
75705;DHT22;64323;44.788;37.692;2022-10-13T21:39:15;10.33;76.70
75705;DHT22;64323;44.788;37.692;2022-10-13T21:41:47;10.26;76.72
75705;DHT22;64323;44.788;37.692;2022-10-13T21:44:18;10.20;77.18
75705;DHT22;64323;44.788;37.692;2022-10-13T21:46:50;10.21;77.25
75705;DHT22;64323;44.788;37.692;2022-10-13T21:49:22;10.16;77.94
75705;DHT22;64323;44.788;37.692;2022-10-13T21:51:54;10.18;77.16
75705;DHT22;64323;44.788;37.692;2022-10-13T21:54:26;10.21;77.18
75705;DHT22;64323;44.788;37.692;2022-10-13T21:56:58;10.23;77.28
75705;DHT22;64323;44.788;37.692;2022-10-13T21:59:29;10.27;77.04
75705;DHT22;64323;44.788;37.692;2022-10-13T22:02:01;10.26;77.44
75705;DHT22;64323;44.788;37.692;2022-10-13T22:04:33;10.27;77.11
75705;DHT22;64323;44.788;37.692;2022-10-13T22:07:05;10.29;76.90
75705;DHT22;64323;44.788;37.692;2022-10-13T22:09:37;10.29;76.86
75705;DHT22;64323;44.788;37.692;2022-10-13T22:12:09;10.31;77.27
75705;DHT22;64323;44.788;37.692;2022-10-13T22:14:41;10.33;76.70
75705;DHT22;64323;44.788;37.692;2022-10-13T22:17:13;10.36;76.87
75705;DHT22;64323;44.788;37.692;2022-10-13T22:19:45;10.39;76.86
75705;DHT22;64323;44.788;37.692;2022-10-13T22:22:16;10.39;76.76
75705;DHT22;64323;44.788;37.692;2022-10-13T22:24:48;10.42;76.89
75705;DHT22;64323;44.788;37.692;2022-10-13T22:27:20;10.42;77.21
75705;DHT22;64323;44.788;37.692;2022-10-13T22:29:52;10.43;77.23
75705;DHT22;64323;44.788;37.692;2022-10-13T22:32:24;10.40;76.95
75705;DHT22;64323;44.788;37.692;2022-10-13T22:34:56;10.41;77.36
75705;DHT22;64323;44.788;37.692;2022-10-13T22:37:27;10.42;77.20
75705;DHT22;64323;44.788;37.692;2022-10-13T22:40:00;10.45;77.79
75705;DHT22;64323;44.788;37.692;2022-10-13T22:42:32;10.51;77.27
75705;DHT22;64323;44.788;37.692;2022-10-13T22:45:04;10.46;77.18
75705;DHT22;64323;44.788;37.692;2022-10-13T22:47:37;10.48;77.77
75705;DHT22;64323;44.788;37.692;2022-10-13T22:50:09;10.54;77.47
75705;DHT22;64323;44.788;37.692;2022-10-13T22:52:41;10.62;77.34
75705;DHT22;64323;44.788;37.692;2022-10-13T22:55:13;10.63;77.68
75705;DHT22;64323;44.788;37.692;2022-10-13T22:57:44;10.58;77.07
75705;DHT22;64323;44.788;37.692;2022-10-13T23:00:16;10.62;77.57
75705;DHT22;64323;44.788;37.692;2022-10-13T23:02:50;10.60;77.42
75705;DHT22;64323;44.788;37.692;2022-10-13T23:05:22;10.63;77.87
75705;DHT22;64323;44.788;37.692;2022-10-13T23:07:54;10.60;77.34
75705;DHT22;64323;44.788;37.692;2022-10-13T23:10:26;10.59;77.56
75705;DHT22;64323;44.788;37.692;2022-10-13T23:12:58;10.56;78.79
75705;DHT22;64323;44.788;37.692;2022-10-13T23:15:30;10.56;78.30
75705;DHT22;64323;44.788;37.692;2022-10-13T23:18:02;10.60;78.21
75705;DHT22;64323;44.788;37.692;2022-10-13T23:20:38;10.62;77.70
75705;DHT22;64323;44.788;37.692;2022-10-13T23:23:10;10.58;78.18
75705;DHT22;64323;44.788;37.692;2022-10-13T23:25:42;10.59;78.17
75705;DHT22;64323;44.788;37.692;2022-10-13T23:28:13;10.53;77.98
75705;DHT22;64323;44.788;37.692;2022-10-13T23:30:45;10.54;79.08
75705;DHT22;64323;44.788;37.692;2022-10-13T23:33:17;10.54;78.79
75705;DHT22;64323;44.788;37.692;2022-10-13T23:35:57;10.56;79.06
75705;DHT22;64323;44.788;37.692;2022-10-13T23:38:30;10.58;78.75
75705;DHT22;64323;44.788;37.692;2022-10-13T23:41:08;10.59;78.33
75705;DHT22;64323;44.788;37.692;2022-10-13T23:43:41;10.56;78.30
75705;DHT22;64323;44.788;37.692;2022-10-13T23:46:13;10.54;78.31
75705;DHT22;64323;44.788;37.692;2022-10-13T23:48:45;10.58;77.51
75705;DHT22;64323;44.788;37.692;2022-10-13T23:51:20;10.59;77.73
75705;DHT22;64323;44.788;37.692;2022-10-13T23:53:52;10.56;78.13
75705;DHT22;64323;44.788;37.692;2022-10-13T23:56:24;10.57;77.91
75705;DHT22;64323;44.788;37.692;2022-10-13T23:58:56;10.51;78.39
